Time;durP1;ratioP1;P1;durP2;ratioP2;P2;SDS_P1;SDS_P2;PMS_P1;PMS_P2;Temp;Humidity;BMP_temperature;BMP_pressure;BME280_temperature;BME280_humidity;BME280_pressure;Samples;Min_cycle;Max_cycle;Signal;HPM_P1;HPM_P2
2022/06/29 00:01:54;;;;;;;4.05;3.75;;;;;;;16.84;85.05;95533.28;5014715;28;20190;-79
2022/06/29 00:04:20;;;;;;;5.35;3.97;;;;;;;16.82;85.07;95540.53;4996974;28;20198;-80
2022/06/29 00:06:45;;;;;;;5.50;3.97;;;;;;;16.81;84.95;95532.84;5010197;28;20183;-79
2022/06/29 00:09:10;;;;;;;4.22;3.83;;;;;;;16.80;84.80;95537.28;5006448;28;20258;-79
2022/06/29 00:11:36;;;;;;;4.30;4.00;;;;;;;16.78;85.01;95523.53;5008794;28;20274;-79
2022/06/29 00:14:01;;;;;;;4.13;3.83;;;;;;;16.77;85.29;95527.16;5002100;28;20187;-79
2022/06/29 00:16:26;;;;;;;4.40;4.00;;;;;;;16.74;84.87;95518.84;5012926;28;20233;-79
2022/06/29 00:18:52;;;;;;;4.60;4.20;;;;;;;16.72;84.98;95519.06;5012131;28;20179;-80
2022/06/29 00:21:17;;;;;;;4.35;3.95;;;;;;;16.68;85.16;95523.84;5012711;28;20265;-80
2022/06/29 00:23:42;;;;;;;4.50;4.10;;;;;;;16.65;85.30;95524.19;5012235;28;20222;-80
2022/06/29 00:26:08;;;;;;;5.68;4.25;;;;;;;16.73;84.94;95519.84;4995106;28;20184;-79
2022/06/29 00:28:33;;;;;;;4.88;3.97;;;;;;;16.67;85.60;95521.38;5001639;28;20295;-79
2022/06/29 00:30:58;;;;;;;4.32;3.92;;;;;;;16.62;85.87;95518.50;4998049;28;20203;-79
2022/06/29 00:33:24;;;;;;;7.28;3.90;;;;;;;16.62;85.60;95514.06;5014949;28;20682;-80
2022/06/29 00:35:49;;;;;;;4.30;3.90;;;;;;;16.61;85.60;95514.28;5014316;28;20197;-80
2022/06/29 00:38:15;;;;;;;5.10;4.00;;;;;;;16.57;86.27;95505.94;5014731;28;20714;-80
2022/06/29 00:40:40;;;;;;;5.75;4.07;;;;;;;16.58;86.48;95497.09;5014740;28;20195;-80
2022/06/29 00:43:06;;;;;;;4.30;3.95;;;;;;;16.58;86.12;95499.69;5013981;28;20705;-79
2022/06/29 00:45:31;;;;;;;4.80;4.40;;;;;;;16.55;86.64;95500.09;5002164;28;20191;-80
2022/06/29 00:47:56;;;;;;;4.97;4.47;;;;;;;16.56;86.67;95504.31;5010772;28;20578;-80
2022/06/29 00:50:22;;;;;;;4.68;4.38;;;;;;;16.55;87.20;95497.47;5014579;28;20231;-79
2022/06/29 00:52:48;;;;;;;4.75;4.35;;;;;;;16.54;87.54;95506.31;4997894;28;20187;-79
2022/06/29 00:55:18;;;;;;;5.30;4.72;;;;;;;16.59;86.67;95506.56;4997109;28;20278;-80
2022/06/29 00:57:44;;;;;;;4.53;4.13;;;;;;;16.60;86.81;95505.56;5014003;28;20187;-80
2022/06/29 01:00:10;;;;;;;5.43;4.57;;;;;;;16.62;85.95;95500.97;5012738;28;20318;-78
2022/06/29 01:02:36;;;;;;;5.43;4.30;;;;;;;16.64;85.84;95503.41;5030366;28;20643;-80
2022/06/29 01:05:03;;;;;;;4.45;4.05;;;;;;;16.64;85.38;95501.59;5013506;28;20179;-80
2022/06/29 01:07:30;;;;;;;4.85;4.43;;;;;;;16.70;85.72;95503.50;5013603;28;20639;-80
2022/06/29 01:09:56;;;;;;;5.72;5.22;;;;;;;16.67;85.38;95506.44;5014253;28;20222;-79
2022/06/29 01:12:22;;;;;;;4.95;4.55;;;;;;;16.66;85.35;95498.78;5014735;28;20699;-79
2022/06/29 01:14:49;;;;;;;5.10;4.65;;;;;;;16.68;85.19;95502.84;5013094;28;20263;-80
2022/06/29 01:17:14;;;;;;;4.45;4.07;;;;;;;16.67;85.10;95500.41;5014384;28;20651;-79
2022/06/29 01:19:41;;;;;;;4.63;4.22;;;;;;;16.63;85.14;95504.41;5014212;28;20195;-80
2022/06/29 01:22:10;;;;;;;5.15;4.75;;;;;;;16.60;85.56;95494.25;5017583;28;20192;-80
2022/06/29 01:24:36;;;;;;;4.55;4.15;;;;;;;16.60;85.39;95491.66;5009111;28;20183;-80
2022/06/29 01:27:02;;;;;;;5.20;4.70;;;;;;;16.59;85.38;95490.84;5014535;28;20254;-79
2022/06/29 01:29:28;;;;;;;4.90;4.50;;;;;;;16.54;85.71;95492.41;5030288;28;20226;-79
2022/06/29 01:31:55;;;;;;;5.32;4.63;;;;;;;16.50;86.05;95499.00;5014421;28;20183;-80
2022/06/29 01:34:21;;;;;;;5.28;4.78;;;;;;;16.42;86.41;95499.94;4997613;28;20195;-80
2022/06/29 01:36:46;;;;;;;4.75;4.35;;;;;;;16.45;86.75;95506.63;4996852;28;20218;-80
2022/06/29 01:39:11;;;;;;;4.63;4.22;;;;;;;16.41;87.39;95495.69;5013639;28;20198;-79
2022/06/29 01:41:37;;;;;;;5.45;4.53;;;;;;;16.34;87.36;95493.00;5013363;28;20253;-80
2022/06/29 01:44:02;;;;;;;5.13;4.63;;;;;;;16.32;87.52;95491.56;4996621;28;20210;-79
2022/06/29 01:46:27;;;;;;;5.03;4.63;;;;;;;16.29;88.23;95484.06;4991837;28;20188;-80
2022/06/29 01:48:53;;;;;;;5.32;4.65;;;;;;;16.29;88.15;95490.13;4994560;28;20211;-79
2022/06/29 01:51:18;;;;;;;5.10;4.70;;;;;;;16.28;88.41;95487.69;4998386;28;20203;-80
2022/06/29 01:53:44;;;;;;;5.05;4.60;;;;;;;16.26;88.63;95489.69;5014661;28;20175;-80
2022/06/29 01:56:09;;;;;;;4.70;4.30;;;;;;;16.21;88.69;95490.22;5013226;28;20210;-80
2022/06/29 01:58:34;;;;;;;4.97;4.57;;;;;;;16.16;89.14;95489.94;4997312;28;20602;-80
2022/06/29 02:00:59;;;;;;;5.63;4.63;;;;;;;16.12;89.17;95491.31;4996489;28;20218;-80
2022/06/29 02:03:25;;;;;;;5.47;4.97;;;;;;;16.13;88.94;95492.94;5012814;28;20198;-80
2022/06/29 02:05:50;;;;;;;5.40;5.00;;;;;;;16.09;89.23;95487.28;5012365;28;20183;-79
2022/06/29 02:08:15;;;;;;;5.00;4.60;;;;;;;16.11;89.33;95482.66;5013402;28;20578;-79
2022/06/29 02:10:41;;;;;;;5.68;5.10;;;;;;;16.13;89.23;95480.66;5014631;28;20207;-80
2022/06/29 02:13:06;;;;;;;6.03;4.97;;;;;;;16.14;89.40;95478.84;5013365;28;20619;-80
2022/06/29 02:15:31;;;;;;;5.22;4.82;;;;;;;16.15;89.53;95488.31;5012872;28;20179;-80
2022/06/29 02:17:57;;;;;;;6.15;5.53;;;;;;;16.11;89.66;95479.22;5015091;28;20218;-80
2022/06/29 02:20:22;;;;;;;6.13;5.50;;;;;;;16.10;90.19;95482.84;5014167;28;20291;-80
2022/06/29 02:22:47;;;;;;;5.07;4.57;;;;;;;16.14;89.55;95478.84;5013359;28;20555;-80
2022/06/29 02:25:13;;;;;;;5.88;5.28;;;;;;;16.10;89.84;95474.97;5012623;28;20194;-79
2022/06/29 02:27:44;;;;;;;5.45;5.05;;;;;;;16.07;90.06;95475.31;5015193;28;20183;-80
2022/06/29 02:30:10;;;;;;;5.57;5.07;;;;;;;16.10;89.96;95477.59;5017042;28;20237;-81
2022/06/29 02:35:20;;;;;;;5.30;4.85;;;;;;;16.10;90.21;95481.03;5016010;28;20190;-81
2022/06/29 02:37:45;;;;;;;5.80;5.13;;;;;;;16.07;90.14;95476.13;5016260;28;20286;-81
2022/06/29 02:40:11;;;;;;;6.32;4.82;;;;;;;16.08;90.38;95474.34;5000250;28;20210;-79
2022/06/29 02:42:36;;;;;;;8.13;5.13;;;;;;;16.12;90.24;95470.38;5016851;28;20210;-79
2022/06/29 02:45:01;;;;;;;6.05;5.28;;;;;;;16.13;90.25;95467.56;5016068;28;20671;-80
2022/06/29 02:47:27;;;;;;;5.35;4.95;;;;;;;16.09;90.86;95466.31;5016543;28;20247;-79
2022/06/29 02:49:52;;;;;;;5.68;5.10;;;;;;;16.20;89.68;95461.59;5016627;28;20215;-80
2022/06/29 02:52:18;;;;;;;5.68;5.10;;;;;;;16.16;90.46;95461.13;5016233;28;20183;-79
2022/06/29 02:54:43;;;;;;;5.63;5.13;;;;;;;16.16;89.86;95466.38;4999286;28;20221;-80
2022/06/29 02:57:08;;;;;;;5.25;4.82;;;;;;;16.11;90.76;95459.06;5016294;28;20183;-80
2022/06/29 02:59:34;;;;;;;5.60;5.20;;;;;;;16.12;90.48;95452.03;5016174;28;20197;-80
2022/06/29 03:02:00;;;;;;;5.85;5.35;;;;;;;16.08;90.35;95450.78;5015648;28;20253;-80
2022/06/29 03:04:25;;;;;;;6.03;5.18;;;;;;;16.11;90.14;95445.16;5017280;28;20179;-79
2022/06/29 03:06:50;;;;;;;5.38;4.88;;;;;;;16.12;89.89;95450.22;5015722;28;20183;-80
2022/06/29 03:09:15;;;;;;;6.45;5.70;;;;;;;16.11;91.23;95453.84;5015604;28;20210;-80
2022/06/29 03:11:41;;;;;;;5.32;4.88;;;;;;;16.09;91.64;95441.94;5015837;28;20186;-80
2022/06/29 03:14:06;;;;;;;6.05;5.35;;;;;;;16.12;91.72;95450.22;5014558;28;20382;-80
2022/06/29 03:16:31;;;;;;;7.03;5.60;;;;;;;16.22;91.07;95451.72;4998921;28;20281;-80
2022/06/29 03:18:57;;;;;;;5.78;5.28;;;;;;;16.22;91.03;95449.13;5015213;28;20255;-79
2022/06/29 03:21:22;;;;;;;5.82;5.10;;;;;;;16.22;91.04;95446.50;5015204;28;20203;-80
2022/06/29 03:23:47;;;;;;;5.95;5.50;;;;;;;16.23;91.53;95448.13;5014475;28;20211;-80
2022/06/29 03:26:12;;;;;;;6.43;5.72;;;;;;;16.28;91.51;95443.94;4998393;28;20183;-79
2022/06/29 03:28:38;;;;;;;6.05;5.45;;;;;;;16.30;90.82;95446.38;5014885;28;20586;-80
2022/06/29 03:31:04;;;;;;;6.53;5.93;;;;;;;16.39;90.06;95450.50;5014638;28;20210;-80
2022/06/29 03:33:29;;;;;;;6.60;5.75;;;;;;;16.42;90.05;95455.38;5014822;28;20171;-79
2022/06/29 03:35:54;;;;;;;5.93;5.43;;;;;;;16.47;89.41;95453.00;5013801;28;20187;-80
2022/06/29 03:38:20;;;;;;;5.88;5.22;;;;;;;16.54;89.36;95451.28;5013867;28;20613;-80
2022/06/29 03:40:45;;;;;;;5.40;4.95;;;;;;;16.55;88.76;95455.53;5013963;28;20205;-80
2022/06/29 03:43:11;;;;;;;6.30;5.18;;;;;;;16.57;88.83;95453.53;5016187;28;20183;-80
2022/06/29 03:45:36;;;;;;;6.50;5.53;;;;;;;16.56;89.21;95458.94;5013964;28;20198;-80
2022/06/29 03:48:01;;;;;;;5.50;5.03;;;;;;;16.63;89.46;95455.41;5012946;28;20250;-81
2022/06/29 03:50:27;;;;;;;5.13;4.63;;;;;;;16.71;88.66;95457.13;5014635;28;20282;-79
2022/06/29 03:52:52;;;;;;;5.97;5.28;;;;;;;16.70;88.44;95468.63;5014613;28;20187;-80
2022/06/29 03:55:17;;;;;;;5.88;4.78;;;;;;;16.74;88.85;95453.31;5009091;28;20184;-79
2022/06/29 03:57:43;;;;;;;6.18;5.57;;;;;;;16.84;88.28;95456.41;5014891;28;20198;-80
2022/06/29 04:00:09;;;;;;;5.75;5.25;;;;;;;17.04;87.22;95454.75;5007861;28;20203;-80
2022/06/29 04:02:35;;;;;;;10.50;5.40;;;;;;;17.44;85.22;95457.69;5014522;28;20187;-80
2022/06/29 04:05:02;;;;;;;7.93;5.60;;;;;;;17.99;82.32;95443.66;5013520;28;20186;-81
2022/06/29 04:07:27;;;;;;;5.38;4.97;;;;;;;18.48;79.16;95442.63;5014398;28;20176;-80
2022/06/29 04:09:59;;;;;;;4.95;4.50;;;;;;;18.89;77.62;95445.13;5015122;28;20313;-80
2022/06/29 04:12:26;;;;;;;4.47;4.18;;;;;;;19.63;74.30;95445.94;5017063;28;20225;-80
2022/06/29 04:14:52;;;;;;;4.80;4.28;;;;;;;20.26;69.99;95438.22;5015035;28;20710;-80
2022/06/29 04:17:17;;;;;;;4.47;3.88;;;;;;;20.71;66.93;95446.13;5016685;28;20197;-80
2022/06/29 04:19:43;;;;;;;4.13;3.83;;;;;;;20.47;67.86;95440.56;5015768;28;20191;-80
2022/06/29 04:22:08;;;;;;;4.43;4.07;;;;;;;20.16;69.09;95441.31;5000117;28;20182;-80
2022/06/29 04:24:33;;;;;;;4.05;3.67;;;;;;;20.03;70.64;95444.78;4996997;28;20190;-80
2022/06/29 04:26:58;;;;;;;5.70;3.88;;;;;;;20.15;69.84;95444.16;5013199;28;20186;-80
2022/06/29 04:29:24;;;;;;;4.95;4.05;;;;;;;20.73;69.26;95444.06;5013990;28;20214;-79
2022/06/29 04:31:49;;;;;;;4.53;4.00;;;;;;;21.49;65.27;95443.91;5016665;28;20179;-80
2022/06/29 04:34:14;;;;;;;6.28;4.28;;;;;;;22.49;61.94;95438.31;4998552;28;20183;-81
2022/06/29 04:36:40;;;;;;;3.72;3.42;;;;;;;23.38;57.91;95440.03;4996737;28;20270;-80
2022/06/29 04:39:05;;;;;;;4.10;3.72;;;;;;;24.43;53.86;95441.75;5006887;28;20183;-84
2022/06/29 04:41:31;;;;;;;3.50;3.20;;;;;;;25.42;51.38;95451.97;5037381;28;20199;-85
2022/06/29 04:43:56;;;;;;;3.80;3.38;;;;;;;25.98;48.47;95458.13;5036567;28;20167;-85
2022/06/29 04:46:22;;;;;;;4.28;3.60;;;;;;;26.57;45.81;95453.00;5036801;28;20210;-85
2022/06/29 04:48:59;;;;;;;4.72;3.63;;;;;;;27.24;44.17;95444.63;5019722;28;20195;-84
2022/06/29 04:51:26;;;;;;;4.55;3.55;;;;;;;26.94;44.19;95446.97;5007654;28;20214;-85
2022/06/29 04:53:55;;;;;;;3.53;3.20;;;;;;;26.94;44.47;95452.28;4996068;28;20175;-85
2022/06/29 04:56:22;;;;;;;3.22;2.92;;;;;;;27.22;43.99;95457.41;4996413;28;20651;-85
2022/06/29 04:58:48;;;;;;;3.42;3.22;;;;;;;27.02;44.49;95457.16;4981387;28;20270;-85
2022/06/29 05:01:14;;;;;;;2.92;2.70;;;;;;;27.08;44.15;95457.00;5016468;28;20246;-85
2022/06/29 05:03:39;;;;;;;5.30;3.45;;;;;;;26.39;46.09;95458.66;4986093;28;20182;-85
2022/06/29 05:06:04;;;;;;;5.10;2.80;;;;;;;24.67;50.20;95460.25;5003071;28;20261;-85
2022/06/29 05:08:30;;;;;;;3.40;3.10;;;;;;;23.73;53.54;95452.50;4995948;28;20203;-84
2022/06/29 05:10:55;;;;;;;3.45;3.25;;;;;;;23.70;55.06;95461.72;5023287;28;20235;-85
2022/06/29 05:13:21;;;;;;;3.78;3.38;;;;;;;24.83;52.07;95459.50;5010911;28;20183;-85
2022/06/29 05:15:46;;;;;;;4.03;3.60;;;;;;;25.61;49.05;95463.16;4980590;28;20176;-85
2022/06/29 05:18:11;;;;;;;3.60;3.30;;;;;;;25.67;49.52;95462.19;4982473;28;20610;-85
2022/06/29 05:20:37;;;;;;;4.47;3.35;;;;;;;26.12;47.11;95467.34;4995077;28;20617;-86
2022/06/29 05:23:04;;;;;;;3.83;3.17;;;;;;;27.48;43.79;95465.59;5010975;28;20330;-86
2022/06/29 05:25:30;;;;;;;3.22;3.03;;;;;;;28.82;41.94;95466.84;4994849;28;20552;-85
2022/06/29 05:27:55;;;;;;;3.88;3.30;;;;;;;28.83;41.15;95465.75;4994448;28;20202;-84
2022/06/29 05:30:20;;;;;;;3.70;3.38;;;;;;;29.67;39.15;95474.41;5010710;28;20702;-85
2022/06/29 05:32:46;;;;;;;4.40;3.25;;;;;;;30.28;38.03;95468.94;4994410;28;20195;-85
2022/06/29 05:35:11;;;;;;;3.33;3.05;;;;;;;30.32;37.06;95468.13;4997598;28;20199;-85
2022/06/29 05:37:39;;;;;;;6.95;2.78;;;;;;;30.40;37.48;95472.13;4991170;28;20188;-85
2022/06/29 05:40:06;;;;;;;3.50;3.17;;;;;;;30.31;37.08;95477.25;5006556;28;20202;-85
2022/06/29 05:42:31;;;;;;;3.95;2.90;;;;;;;30.19;37.03;95474.06;5010842;28;20175;-85
2022/06/29 05:44:56;;;;;;;3.58;3.28;;;;;;;30.57;35.91;95461.88;4986380;28;20619;-85
2022/06/29 05:47:22;;;;;;;3.53;3.10;;;;;;;30.57;35.73;95461.03;4999886;28;20706;-84
2022/06/29 05:49:47;;;;;;;3.60;3.30;;;;;;;31.05;35.50;95464.81;4994110;28;20627;-85
2022/06/29 05:52:12;;;;;;;3.45;2.92;;;;;;;30.95;34.98;95460.31;5010181;28;20191;-86
2022/06/29 05:54:38;;;;;;;3.30;3.10;;;;;;;30.90;34.97;95456.88;4993940;28;20174;-86
2022/06/29 05:57:04;;;;;;;3.55;3.25;;;;;;;30.78;34.90;95459.09;4994631;28;20191;-86
2022/06/29 05:59:29;;;;;;;3.30;3.00;;;;;;;31.13;34.74;95463.44;4995364;28;20228;-86
2022/06/29 06:01:54;;;;;;;3.22;3.03;;;;;;;30.68;35.08;95460.75;5013843;28;20683;-85
2022/06/29 06:04:20;;;;;;;3.72;2.85;;;;;;;30.24;35.35;95466.00;4998739;28;20546;-84
2022/06/29 06:06:45;;;;;;;3.70;3.08;;;;;;;29.54;36.19;95465.88;5014386;28;20574;-85
2022/06/29 06:09:10;;;;;;;4.03;3.30;;;;;;;28.48;38.39;95459.25;5009565;28;20203;-85
2022/06/29 06:11:36;;;;;;;3.60;3.30;;;;;;;27.78;41.10;95452.50;5016555;28;20250;-84
2022/06/29 06:14:01;;;;;;;3.20;2.95;;;;;;;27.48;41.68;95461.06;4994899;28;20245;-86
2022/06/29 06:16:27;;;;;;;3.17;2.88;;;;;;;29.04;39.03;95462.06;5004096;28;20180;-85
2022/06/29 06:18:52;;;;;;;3.05;2.75;;;;;;;29.80;37.11;95458.59;5012502;28;20187;-84
2022/06/29 06:21:17;;;;;;;3.30;3.00;;;;;;;29.71;37.13;95459.44;5013515;28;20832;-85
2022/06/29 06:23:42;;;;;;;3.42;2.85;;;;;;;30.02;36.62;95457.47;4991758;28;20187;-83
2022/06/29 06:26:08;;;;;;;2.78;2.58;;;;;;;30.67;35.89;95450.31;5008341;28;20203;-86
2022/06/29 06:28:33;;;;;;;3.95;3.15;;;;;;;30.38;35.95;95466.22;5010012;28;20314;-84
2022/06/29 06:30:58;;;;;;;4.38;3.00;;;;;;;30.21;36.12;95460.38;4992709;28;20683;-84
2022/06/29 06:33:24;;;;;;;4.13;3.50;;;;;;;30.00;36.80;95462.31;5002273;28;20241;-86
2022/06/29 06:35:49;;;;;;;2.97;2.65;;;;;;;29.94;36.11;95468.72;5017322;28;20187;-84
2022/06/29 06:38:15;;;;;;;2.80;2.60;;;;;;;29.80;36.76;95469.31;5018582;28;20202;-85
2022/06/29 06:43:24;;;;;;;3.15;2.85;;;;;;;29.22;36.69;95467.97;5001805;28;20919;-85
2022/06/29 06:45:50;;;;;;;3.17;2.97;;;;;;;28.01;39.38;95464.63;5016096;28;20191;-85
2022/06/29 06:48:15;;;;;;;4.22;3.00;;;;;;;28.16;39.89;95463.88;5001352;28;20207;-85
2022/06/29 06:50:40;;;;;;;4.30;3.30;;;;;;;27.73;41.51;95470.31;5016984;28;20211;-85
2022/06/29 06:53:06;;;;;;;3.17;2.80;;;;;;;27.48;41.19;95468.28;5016705;28;20630;-83
2022/06/29 06:55:31;;;;;;;4.00;2.80;;;;;;;26.36;43.51;95470.59;4999752;28;20175;-80
2022/06/29 06:57:56;;;;;;;4.05;3.13;;;;;;;25.70;46.18;95475.81;5003063;28;20256;-80
2022/06/29 07:00:22;;;;;;;5.90;3.28;;;;;;;25.94;46.55;95473.78;5019473;28;20203;-81
2022/06/29 07:02:47;;;;;;;3.40;3.10;;;;;;;25.94;47.82;95476.44;5019430;28;20594;-79
2022/06/29 07:05:12;;;;;;;3.72;3.40;;;;;;;25.85;47.88;95474.44;5018224;28;20187;-80
2022/06/29 07:07:38;;;;;;;3.33;3.13;;;;;;;26.67;46.42;95476.28;5000818;28;20553;-79
2022/06/29 07:10:04;;;;;;;4.28;2.90;;;;;;;27.63;43.11;95479.03;5018233;28;20226;-79
2022/06/29 07:12:29;;;;;;;3.45;3.10;;;;;;;27.97;43.39;95468.88;5019022;28;20721;-80
2022/06/29 07:14:54;;;;;;;3.65;3.25;;;;;;;29.59;38.88;95473.88;5016665;28;20187;-80
2022/06/29 07:17:19;;;;;;;3.05;2.85;;;;;;;29.51;38.48;95473.63;5018312;28;20194;-79
2022/06/29 07:19:45;;;;;;;5.30;3.15;;;;;;;28.85;40.50;95468.16;5001992;28;20711;-81
2022/06/29 07:22:10;;;;;;;3.92;3.13;;;;;;;29.35;38.32;95467.44;5017422;28;20175;-79
2022/06/29 07:24:35;;;;;;;3.40;3.10;;;;;;;30.35;35.32;95480.97;5017496;28;20265;-80
2022/06/29 07:27:01;;;;;;;3.47;2.83;;;;;;;30.00;37.52;95473.00;5001153;28;20182;-80
2022/06/29 07:29:26;;;;;;;3.22;2.97;;;;;;;30.29;35.33;95473.22;5001858;28;20254;-79
2022/06/29 07:31:51;;;;;;;3.67;3.15;;;;;;;29.76;37.37;95478.13;5017604;28;20187;-81
2022/06/29 07:34:17;;;;;;;6.57;3.20;;;;;;;31.34;33.92;95488.25;5016959;28;20191;-79
2022/06/29 07:36:42;;;;;;;5.43;3.10;;;;;;;29.84;36.90;95480.25;5011384;28;20200;-79
2022/06/29 07:39:07;;;;;;;5.00;3.42;;;;;;;28.82;39.48;95482.88;5016529;28;20233;-80
2022/06/29 07:41:32;;;;;;;3.33;3.03;;;;;;;28.79;40.28;95480.69;5014415;28;20199;-81
2022/06/29 07:43:58;;;;;;;3.63;3.22;;;;;;;27.55;42.58;95482.97;5032741;28;20175;-79
2022/06/29 07:46:23;;;;;;;3.53;3.25;;;;;;;27.02;43.83;95483.81;5015862;28;20206;-80
2022/06/29 07:48:49;;;;;;;6.35;4.05;;;;;;;26.61;44.24;95483.41;5012073;28;20210;-80
2022/06/29 07:51:14;;;;;;;4.18;3.80;;;;;;;26.35;44.86;95482.28;4997173;28;20630;-81
2022/06/29 07:53:39;;;;;;;6.30;3.90;;;;;;;25.49;47.34;95487.19;5001032;28;20183;-82
2022/06/29 07:56:05;;;;;;;9.07;4.03;;;;;;;24.96;49.16;95484.94;5017653;28;20171;-81
2022/06/29 07:58:30;;;;;;;4.07;3.78;;;;;;;25.49;46.80;95479.19;5017677;28;20211;-79
2022/06/29 08:00:55;;;;;;;4.35;3.90;;;;;;;25.79;46.97;95481.53;5017732;28;20199;-81
2022/06/29 08:03:21;;;;;;;4.38;3.97;;;;;;;25.74;47.84;95478.81;5018370;28;20237;-79
2022/06/29 08:05:46;;;;;;;3.67;3.38;;;;;;;26.13;47.70;95476.13;5019024;28;20203;-80
2022/06/29 08:08:11;;;;;;;4.57;4.13;;;;;;;25.61;47.95;95479.09;5018258;28;20233;-81
2022/06/29 08:10:37;;;;;;;6.05;4.30;;;;;;;25.65;48.27;95473.06;5001066;28;20214;-79
2022/06/29 08:13:02;;;;;;;6.13;4.20;;;;;;;25.64;48.69;95474.13;5018857;28;20191;-80
2022/06/29 08:15:28;;;;;;;4.93;4.53;;;;;;;24.87;51.10;95484.50;5016927;28;20171;-80
2022/06/29 08:17:54;;;;;;;4.60;4.18;;;;;;;25.00;51.71;95480.75;5014469;28;20204;-80
2022/06/29 08:20:20;;;;;;;6.25;3.97;;;;;;;25.14;52.32;95474.13;4997465;28;20257;-81
2022/06/29 08:22:46;;;;;;;5.28;3.90;;;;;;;25.09;52.34;95480.16;5033326;28;20183;-79
2022/06/29 08:25:11;;;;;;;5.97;4.05;;;;;;;25.90;50.25;95487.81;4999716;28;20179;-79
2022/06/29 08:27:37;;;;;;;5.88;4.43;;;;;;;26.32;48.15;95472.13;5012623;28;20187;-80
2022/06/29 08:30:03;;;;;;;6.10;3.65;;;;;;;26.39;48.16;95464.78;5006606;28;20218;-80
2022/06/29 08:32:31;;;;;;;6.32;4.38;;;;;;;26.93;46.41;95472.00;5009338;28;20184;-80
2022/06/29 08:35:01;;;;;;;5.10;3.83;;;;;;;26.47;48.05;95471.53;5013931;28;20309;-79
2022/06/29 08:37:28;;;;;;;6.25;4.10;;;;;;;26.43;47.92;95470.44;5017565;28;20202;-80
2022/06/29 08:39:53;;;;;;;6.13;3.65;;;;;;;26.63;46.93;95470.66;5017117;28;20195;-80
2022/06/29 08:42:22;;;;;;;4.22;3.88;;;;;;;26.14;47.69;95473.22;5015657;28;20225;-80
2022/06/29 08:44:49;;;;;;;4.38;4.00;;;;;;;26.30;47.46;95476.88;4997813;28;20187;-79
2022/06/29 08:47:14;;;;;;;5.57;4.15;;;;;;;26.44;46.16;95469.38;4998784;28;20203;-79
2022/06/29 08:49:40;;;;;;;5.57;3.90;;;;;;;26.21;48.09;95476.50;5001378;28;20714;-78
2022/06/29 08:52:06;;;;;;;6.65;4.50;;;;;;;26.22;47.17;95466.66;5016507;28;20179;-80
2022/06/29 08:54:35;;;;;;;4.53;4.13;;;;;;;26.41;46.86;95473.31;4998691;28;20187;-80
2022/06/29 08:57:02;;;;;;;5.10;4.65;;;;;;;24.86;50.70;95482.91;5018324;28;20234;-79
2022/06/29 08:59:28;;;;;;;4.28;3.88;;;;;;;25.56;49.63;95482.50;5035986;28;20191;-78
2022/06/29 09:01:54;;;;;;;3.88;3.58;;;;;;;25.69;50.26;95482.16;5019643;28;20214;-78
2022/06/29 09:04:19;;;;;;;3.63;3.40;;;;;;;25.81;49.78;95476.00;5034997;28;20190;-81
2022/06/29 09:06:45;;;;;;;6.47;3.78;;;;;;;25.80;49.35;95477.03;5004513;28;20191;-80
2022/06/29 09:09:12;;;;;;;3.95;3.55;;;;;;;26.10;49.58;95480.09;5004196;28;20195;-81
2022/06/29 09:11:41;;;;;;;3.88;3.55;;;;;;;26.31;47.50;95467.03;5020033;28;20662;-80
2022/06/29 09:14:14;;;;;;;4.65;4.25;;;;;;;25.68;48.85;95480.56;5019117;28;20404;-82
2022/06/29 09:17:02;;;;;;;4.20;3.83;;;;;;;26.19;48.31;95475.16;5005191;28;20179;-81
2022/06/29 09:19:29;;;;;;;4.75;3.88;;;;;;;26.43;47.89;95467.78;5030682;28;20539;-80
2022/06/29 09:21:57;;;;;;;8.63;3.70;;;;;;;26.41;48.82;95465.34;5019372;28;20187;-80
2022/06/29 09:24:28;;;;;;;4.78;3.60;;;;;;;26.34;48.45;95458.59;5018907;28;20187;-80
2022/06/29 09:26:55;;;;;;;4.30;3.92;;;;;;;26.60;45.14;95465.84;5018447;28;20194;-81
2022/06/29 09:29:27;;;;;;;4.28;3.97;;;;;;;26.62;46.13;95465.59;5019294;28;20210;-80
2022/06/29 09:32:03;;;;;;;3.90;3.60;;;;;;;26.31;47.76;95464.38;5018336;28;20241;-80
2022/06/29 09:34:29;;;;;;;4.03;3.33;;;;;;;26.68;46.94;95473.38;5016650;28;20209;-82
2022/06/29 09:36:55;;;;;;;4.10;3.75;;;;;;;26.74;46.54;95474.22;5016893;28;20254;-83
2022/06/29 09:39:36;;;;;;;5.20;3.70;;;;;;;26.17;47.87;95478.06;5001169;28;20570;-80
2022/06/29 09:42:02;;;;;;;5.70;4.00;;;;;;;25.88;48.56;95482.72;5009000;28;20182;-81
2022/06/29 09:44:28;;;;;;;3.65;3.35;;;;;;;25.97;47.82;95472.47;5018172;28;20562;-80
2022/06/29 09:46:55;;;;;;;3.60;3.40;;;;;;;25.87;48.50;95483.78;5016819;28;20266;-80
2022/06/29 09:49:26;;;;;;;4.32;4.00;;;;;;;25.90;49.78;95471.88;5017474;28;20202;-80
2022/06/29 09:51:56;;;;;;;5.25;4.20;;;;;;;25.99;50.27;95478.38;5018491;28;20230;-80
2022/06/29 09:54:30;;;;;;;4.20;3.80;;;;;;;25.85;49.45;95482.41;5033414;28;20179;-80
2022/06/29 09:56:56;;;;;;;3.33;3.13;;;;;;;26.09;49.60;95472.38;5019692;28;20274;-81
2022/06/29 10:02:34;;;;;;;4.43;3.80;;;;;;;25.44;51.75;95481.78;5017278;28;20198;-80
2022/06/29 10:05:22;;;;;;;4.65;3.88;;;;;;;25.19;51.49;95481.38;5015995;28;20206;-80
2022/06/29 10:07:52;;;;;;;3.85;3.55;;;;;;;25.05;51.37;95476.38;5016807;28;20186;-80
2022/06/29 10:10:23;;;;;;;4.00;3.60;;;;;;;24.78;53.38;95485.94;5034061;28;20210;-80
2022/06/29 10:15:55;;;;;;;3.97;3.78;;;;;;;23.94;55.18;95475.78;5016527;28;20185;-79
2022/06/29 10:18:29;;;;;;;4.68;3.85;;;;;;;24.35;54.49;95481.94;5017496;28;20171;-80
2022/06/29 10:20:55;;;;;;;4.32;3.97;;;;;;;24.17;55.45;95476.75;5017331;28;20233;-79
2022/06/29 10:23:40;;;;;;;4.18;3.72;;;;;;;24.38;55.06;95473.50;5017656;28;20194;-80
2022/06/29 10:26:30;;;;;;;4.60;4.15;;;;;;;24.50;53.58;95476.94;5016146;28;20199;-80
2022/06/29 10:28:55;;;;;;;4.47;4.15;;;;;;;24.25;53.62;95479.06;5015679;28;20203;-80
2022/06/29 10:31:53;;;;;;;4.32;3.80;;;;;;;24.08;55.43;95483.47;4998287;28;20210;-80
2022/06/29 10:34:31;;;;;;;4.15;3.85;;;;;;;24.65;53.94;95478.25;5014090;28;20232;-80
2022/06/29 10:37:02;;;;;;;4.63;4.22;;;;;;;24.36;53.68;95478.25;5014743;28;20225;-80
2022/06/29 10:45:12;;;;;;;4.78;4.38;;;;;;;24.55;51.93;95477.00;5034691;28;20198;-79
2022/06/29 10:47:38;;;;;;;5.78;4.13;;;;;;;24.56;52.15;95478.66;5024644;28;20211;-78
2022/06/29 10:50:16;;;;;;;4.70;4.25;;;;;;;25.14;50.63;95469.59;5037846;28;20219;-77
2022/06/29 10:52:42;;;;;;;4.97;4.53;;;;;;;25.08;50.45;95473.22;5038149;28;20191;-77
2022/06/29 10:55:08;;;;;;;4.95;4.28;;;;;;;25.11;51.46;95470.09;5037053;28;20187;-79
2022/06/29 10:57:34;;;;;;;4.65;4.03;;;;;;;25.49;50.02;95473.88;5033406;28;20244;-79
2022/06/29 11:00:00;;;;;;;4.57;4.28;;;;;;;25.72;49.70;95472.94;5033029;28;20191;-78
2022/06/29 11:02:25;;;;;;;4.38;4.07;;;;;;;25.64;50.32;95466.16;5021540;28;20709;-80
2022/06/29 11:04:51;;;;;;;4.72;4.32;;;;;;;25.38;49.18;95474.78;5020089;28;20627;-80
2022/06/29 11:12:51;;;;;;;5.55;4.25;;;;;;;25.49;51.16;95470.44;5020512;28;20194;-79
2022/06/29 11:15:40;;;;;;;4.10;3.70;;;;;;;25.53;51.24;95467.06;5019723;28;20202;-80
2022/06/29 11:18:12;;;;;;;6.28;5.28;;;;;;;25.88;50.20;95473.94;5021346;28;20235;-80
2022/06/29 11:20:42;;;;;;;4.43;4.03;;;;;;;25.76;51.65;95466.06;5036027;28;20207;-78
2022/06/29 11:23:12;;;;;;;4.15;3.80;;;;;;;25.71;52.20;95468.69;5005394;28;20640;-79
2022/06/29 11:25:39;;;;;;;10.95;5.30;;;;;;;25.85;50.57;95461.94;4999951;28;20191;-79
2022/06/29 11:28:04;;;;;;;5.10;4.45;;;;;;;25.28;51.18;95464.00;5019434;28;20189;-80
2022/06/29 11:30:29;;;;;;;5.10;4.07;;;;;;;25.96;50.28;95461.03;5017472;28;20233;-78
2022/06/29 11:32:55;;;;;;;5.55;4.28;;;;;;;25.95;50.44;95461.28;5016633;28;20264;-77
2022/06/29 11:35:22;;;;;;;4.40;4.00;;;;;;;26.41;49.36;95460.00;4999274;28;20198;-78
2022/06/29 11:37:57;;;;;;;5.15;4.20;;;;;;;26.57;46.95;95453.00;5017336;28;20191;-79
2022/06/29 11:40:36;;;;;;;4.25;3.78;;;;;;;26.03;50.17;95465.38;5017227;28;20210;-79
2022/06/29 11:43:10;;;;;;;4.53;4.20;;;;;;;26.38;48.61;95446.41;5017723;28;20183;-79
2022/06/29 11:45:41;;;;;;;8.38;4.13;;;;;;;26.27;47.75;95440.94;5015535;28;20655;-78
2022/06/29 11:48:23;;;;;;;5.10;4.60;;;;;;;26.07;48.40;95440.69;5016827;28;20178;-79
2022/06/29 11:50:54;;;;;;;4.90;4.35;;;;;;;25.50;50.22;95443.59;5018838;28;20195;-79
2022/06/29 11:53:38;;;;;;;4.47;4.07;;;;;;;25.50;51.36;95446.25;5003343;28;20190;-79
2022/06/29 11:56:12;;;;;;;4.97;4.30;;;;;;;25.50;51.09;95454.22;5018126;28;20547;-79